Airport View

Enter AWOS ICAO identifier for current METAR.

ex. KFNL

KMAN 022355Z AUTO 06007KT 10SM CLR 28/06 A3006 RMK A01

2 Jun 2020 23:59

Frequency: 118.325

Phone: (208) 318-0040

Other Area AWOS: KEUL - KBOI - KONO - KMUO

TAF KBOI 021720Z 0218/0318 30005KT P6SM SKC FM030300 VRB03KT P6SM SCT200